createdAt,value
2018-08-07T00:00:20.037Z,20.41
2018-08-07T00:02:50.522Z,20.38
2018-08-07T00:05:19.904Z,20.37
2018-08-07T00:07:50.964Z,20.35
2018-08-07T00:10:21.581Z,20.32
2018-08-07T00:12:50.892Z,20.33
2018-08-07T00:15:20.941Z,20.29
2018-08-07T00:17:50.141Z,20.26
2018-08-07T00:20:19.401Z,20.23
2018-08-07T00:22:48.660Z,20.17
2018-08-07T00:25:17.968Z,20.14
2018-08-07T00:27:47.261Z,20.14
2018-08-07T00:30:17.341Z,20.13
2018-08-07T00:32:46.806Z,20.15
2018-08-07T00:35:18.962Z,20.17
2018-08-07T00:37:49.164Z,20.19
2018-08-07T00:40:19.251Z,20.18
2018-08-07T00:42:48.958Z,20.16
2018-08-07T00:45:20.096Z,20.17
2018-08-07T00:47:50.141Z,20.14
2018-08-07T00:50:20.943Z,20.07
2018-08-07T00:52:51.216Z,20.01
2018-08-07T00:55:21.188Z,19.97
2018-08-07T00:57:51.000Z,19.94
2018-08-07T01:00:20.624Z,19.92
2018-08-07T01:02:50.296Z,19.92
2018-08-07T01:05:19.575Z,19.91
2018-08-07T01:07:48.843Z,19.87
2018-08-07T01:10:18.817Z,19.84
2018-08-07T01:12:48.302Z,19.83
2018-08-07T01:15:20.572Z,19.84
2018-08-07T01:17:49.886Z,19.87
2018-08-07T01:20:23.088Z,19.89
2018-08-07T01:22:52.598Z,19.90
2018-08-07T01:25:24.297Z,19.87
2018-08-07T01:27:53.562Z,19.81
2018-08-07T01:30:26.085Z,19.73
2018-08-07T01:32:56.001Z,19.69
2018-08-07T01:35:26.320Z,19.65
2018-08-07T01:37:55.625Z,19.66
2018-08-07T01:40:24.865Z,19.65
2018-08-07T01:42:54.192Z,19.67
2018-08-07T01:45:23.823Z,19.64
2018-08-07T01:47:54.565Z,19.62
2018-08-07T01:50:23.778Z,19.61
2018-08-07T01:52:53.124Z,19.59
2018-08-07T01:55:25.565Z,19.54
2018-08-07T01:57:54.869Z,19.51
2018-08-07T02:00:24.189Z,19.48
2018-08-07T02:02:53.456Z,19.42
2018-08-07T02:05:23.755Z,19.41
2018-08-07T02:07:53.337Z,19.42
2018-08-07T02:10:22.576Z,19.45
2018-08-07T02:12:51.834Z,19.45
2018-08-07T02:15:21.048Z,19.47
2018-08-07T02:17:50.287Z,19.46
2018-08-07T02:20:19.566Z,19.45
2018-08-07T02:22:48.778Z,19.47
2018-08-07T02:25:19.244Z,19.46
2018-08-07T02:27:48.876Z,19.46
2018-08-07T02:30:18.662Z,19.48
2018-08-07T02:32:47.945Z,19.49
2018-08-07T02:35:17.828Z,19.51
2018-08-07T02:37:47.939Z,19.51
2018-08-07T02:40:17.724Z,19.43
2018-08-07T02:42:47.121Z,19.36
2018-08-07T02:45:19.578Z,19.34
2018-08-07T02:47:49.222Z,19.29
2018-08-07T02:50:20.297Z,19.27
2018-08-07T02:52:49.615Z,19.28
2018-08-07T02:55:19.253Z,19.29
2018-08-07T02:57:48.697Z,19.23
2018-08-07T03:00:20.139Z,19.19
2018-08-07T03:02:49.542Z,19.17
2018-08-07T03:05:19.883Z,19.15
2018-08-07T03:07:49.371Z,19.11
2018-08-07T03:10:18.565Z,19.09
2018-08-07T03:12:48.072Z,19.10
2018-08-07T03:15:18.696Z,19.13
2018-08-07T03:17:48.521Z,19.09
2018-08-07T03:20:18.994Z,19.02
2018-08-07T03:22:48.249Z,18.99
2018-08-07T03:25:18.070Z,19.09
2018-08-07T03:27:47.521Z,19.15
2018-08-07T03:30:20.924Z,19.19
2018-08-07T03:32:50.175Z,19.20
2018-08-07T03:35:19.489Z,19.20
2018-08-07T03:37:50.959Z,19.17
2018-08-07T03:40:20.902Z,19.10
2018-08-07T03:42:50.170Z,19.10
2018-08-07T03:45:20.130Z,19.11
2018-08-07T03:47:49.669Z,19.08
2018-08-07T03:50:18.869Z,19.07
2018-08-07T03:52:48.127Z,19.10
2018-08-07T03:55:18.689Z,19.14
2018-08-07T03:57:48.472Z,19.19
2018-08-07T04:00:20.769Z,19.24
2018-08-07T04:02:50.440Z,19.30
2018-08-07T04:05:19.698Z,19.35
2018-08-07T04:07:48.931Z,19.35
2018-08-07T04:10:19.195Z,19.33
2018-08-07T04:12:48.434Z,19.33
2018-08-07T04:15:18.703Z,19.33
2018-08-07T04:17:47.946Z,19.31
2018-08-07T04:20:18.417Z,19.26
2018-08-07T04:22:47.626Z,19.17
2018-08-07T04:25:16.996Z,19.21
2018-08-07T04:27:46.697Z,19.23
2018-08-07T04:30:17.401Z,19.27
2018-08-07T04:32:46.994Z,19.28
2018-08-07T04:35:17.106Z,19.32
2018-08-07T04:37:46.715Z,19.36
2018-08-07T04:40:16.049Z,19.39
2018-08-07T04:42:45.293Z,19.45
2018-08-07T04:45:16.824Z,19.55
2018-08-07T04:47:46.895Z,19.61
2018-08-07T04:50:16.103Z,19.70
2018-08-07T04:52:45.469Z,19.96
2018-08-07T04:55:14.842Z,20.20
2018-08-07T04:57:44.232Z,20.54
2018-08-07T05:00:18.589Z,20.82
2018-08-07T05:02:48.878Z,21.08
2018-08-07T05:05:18.178Z,21.30
2018-08-07T05:07:47.364Z,21.42
2018-08-07T05:10:18.294Z,21.59
2018-08-07T05:12:48.272Z,21.62
2018-08-07T05:15:17.674Z,21.73
2018-08-07T05:17:47.996Z,21.93
2018-08-07T05:20:17.372Z,21.81
2018-08-07T05:22:47.582Z,21.72
2018-08-07T05:25:17.086Z,21.91
2018-08-07T05:27:46.287Z,22.13
2018-08-07T05:30:17.459Z,22.26
2018-08-07T05:32:46.830Z,22.33
2018-08-07T05:35:16.664Z,22.43
2018-08-07T05:37:45.900Z,22.48
2018-08-07T05:40:15.139Z,22.35
2018-08-07T05:42:44.418Z,22.48
2018-08-07T05:45:16.241Z,22.53
2018-08-07T05:47:45.639Z,22.60
2018-08-07T05:50:16.426Z,22.52
2018-08-07T05:52:45.490Z,22.60
2018-08-07T05:55:15.340Z,22.79
2018-08-07T05:57:44.573Z,22.75
2018-08-07T06:00:16.767Z,22.60
2018-08-07T06:02:46.960Z,22.71
2018-08-07T06:05:16.314Z,22.65
2018-08-07T06:07:45.915Z,22.50
2018-08-07T06:10:15.177Z,22.70
2018-08-07T06:12:44.472Z,23.03
2018-08-07T06:15:15.647Z,23.00
2018-08-07T06:17:45.748Z,23.01
2018-08-07T06:20:15.018Z,22.91
2018-08-07T06:22:44.360Z,22.91
2018-08-07T06:25:13.637Z,23.08
2018-08-07T06:27:42.831Z,23.09
2018-08-07T06:30:14.370Z,23.12
2018-08-07T06:32:43.911Z,23.36
2018-08-07T06:35:13.152Z,23.60
2018-08-07T06:37:42.528Z,23.79
2018-08-07T06:40:12.825Z,23.74
2018-08-07T06:42:42.031Z,23.66
2018-08-07T06:45:13.754Z,23.79
2018-08-07T06:47:42.934Z,23.77
2018-08-07T06:50:15.716Z,23.82
2018-08-07T06:52:46.156Z,23.79
2018-08-07T06:55:15.416Z,23.72
2018-08-07T06:57:44.733Z,23.77
2018-08-07T07:00:16.048Z,23.93
2018-08-07T07:02:45.345Z,24.06
2018-08-07T07:05:14.550Z,24.08
2018-08-07T07:07:43.890Z,24.26
2018-08-07T07:10:14.090Z,24.30
2018-08-07T07:12:44.800Z,24.39
2018-08-07T07:15:15.056Z,24.41
2018-08-07T07:17:46.977Z,24.37
2018-08-07T07:20:17.459Z,24.31
2018-08-07T07:22:47.575Z,24.36
2018-08-07T07:25:16.921Z,24.50
2018-08-07T07:27:46.149Z,24.63
2018-08-07T07:30:18.841Z,24.66
2018-08-07T07:32:49.592Z,24.83
2018-08-07T07:35:19.141Z,24.66
2018-08-07T07:37:48.697Z,24.78
2018-08-07T07:40:17.937Z,24.92
2018-08-07T07:42:47.192Z,25.15
2018-08-07T07:45:17.869Z,25.13
2018-08-07T07:47:47.123Z,25.03
2018-08-07T07:50:18.539Z,25.25
2018-08-07T07:52:48.830Z,25.48
2018-08-07T07:55:18.814Z,25.45
2018-08-07T07:57:48.033Z,25.59
2018-08-07T08:00:23.198Z,25.74
2018-08-07T08:02:52.841Z,25.81
2018-08-07T08:05:26.244Z,25.86
2018-08-07T08:07:55.756Z,25.90
2018-08-07T08:10:24.891Z,25.90
2018-08-07T08:12:54.072Z,26.03
2018-08-07T08:15:23.325Z,25.88
2018-08-07T08:17:52.533Z,25.95
2018-08-07T08:20:24.145Z,25.99
2018-08-07T08:22:55.048Z,26.00
2018-08-07T08:25:24.236Z,26.16
2018-08-07T08:27:53.472Z,26.23
2018-08-07T08:30:22.711Z,26.40
2018-08-07T08:32:51.936Z,26.41
2018-08-07T08:35:21.191Z,26.55
2018-08-07T08:37:50.726Z,26.63
2018-08-07T08:40:22.012Z,26.67
2018-08-07T08:42:51.243Z,26.57
2018-08-07T08:45:22.544Z,26.76
2018-08-07T08:47:54.651Z,26.92
2018-08-07T08:50:23.939Z,26.92
2018-08-07T08:52:53.195Z,26.91
2018-08-07T08:55:22.464Z,27.08
2018-08-07T08:57:51.616Z,27.26
2018-08-07T09:00:28.018Z,27.25
2018-08-07T09:02:58.480Z,27.43
2018-08-07T09:05:27.741Z,27.61
2018-08-07T09:07:57.011Z,27.83
2018-08-07T09:10:28.083Z,27.88
2018-08-07T09:12:57.843Z,27.91
2018-08-07T09:15:27.102Z,28.12
2018-08-07T09:17:56.506Z,28.02
2018-08-07T09:20:28.824Z,28.32
2018-08-07T09:22:59.180Z,28.48
2018-08-07T09:25:29.585Z,28.44
2018-08-07T09:27:58.818Z,28.34
2018-08-07T09:30:29.281Z,28.38
2018-08-07T09:32:59.360Z,28.39
2018-08-07T09:35:28.519Z,28.43
2018-08-07T09:37:58.514Z,28.52
2018-08-07T09:40:27.853Z,28.75
2018-08-07T09:42:57.583Z,28.86
2018-08-07T09:45:30.826Z,28.85
2018-08-07T09:48:01.003Z,28.76
2018-08-07T09:50:32.110Z,28.99
2018-08-07T09:53:01.288Z,29.17
2018-08-07T09:55:30.516Z,29.36
2018-08-07T09:57:59.793Z,29.45
2018-08-07T10:00:34.797Z,29.30
2018-08-07T10:03:05.930Z,29.19
2018-08-07T10:05:35.246Z,29.34
2018-08-07T10:08:04.425Z,29.49
2018-08-07T10:10:33.734Z,29.85
2018-08-07T10:13:03.244Z,30.12
2018-08-07T10:15:32.466Z,30.19
2018-08-07T10:18:01.951Z,30.29
2018-08-07T10:20:31.371Z,30.55
2018-08-07T10:23:00.602Z,30.61
2018-08-07T10:25:29.820Z,30.78
2018-08-07T10:27:59.016Z,30.67
2018-08-07T10:30:28.308Z,30.47
2018-08-07T10:32:58.022Z,30.40
2018-08-07T10:35:27.544Z,30.21
2018-08-07T10:37:56.744Z,30.45
2018-08-07T10:40:27.441Z,30.68
2018-08-07T10:42:56.664Z,31.05
2018-08-07T10:45:27.006Z,31.27
2018-08-07T10:47:56.312Z,31.29
2018-08-07T10:50:27.585Z,31.26
2018-08-07T10:52:57.409Z,31.42
2018-08-07T10:55:27.337Z,31.32
2018-08-07T10:57:58.036Z,31.14
2018-08-07T11:00:29.665Z,31.36
2018-08-07T11:02:59.376Z,31.42
2018-08-07T11:05:29.200Z,31.08
2018-08-07T11:07:58.410Z,30.97
2018-08-07T11:10:28.223Z,30.73
2018-08-07T11:12:57.667Z,30.81
2018-08-07T11:15:30.120Z,30.87
2018-08-07T11:18:00.343Z,31.14
2018-08-07T11:20:29.596Z,31.34
2018-08-07T11:23:00.203Z,31.42
2018-08-07T11:25:30.213Z,31.34
2018-08-07T11:27:59.774Z,31.55
2018-08-07T11:30:29.929Z,31.73
2018-08-07T11:33:00.428Z,31.49
2018-08-07T11:35:29.756Z,31.53
2018-08-07T11:38:00.445Z,31.83
2018-08-07T11:40:29.864Z,31.86
2018-08-07T11:42:59.496Z,31.79
2018-08-07T11:45:30.113Z,31.71
2018-08-07T11:47:59.382Z,31.37
2018-08-07T11:50:29.932Z,31.01
2018-08-07T11:52:59.168Z,30.76
2018-08-07T11:55:28.388Z,30.57
2018-08-07T11:57:57.663Z,30.41
2018-08-07T12:00:30.879Z,30.35
2018-08-07T12:03:00.276Z,30.13
2018-08-07T12:05:30.168Z,30.09
2018-08-07T12:07:59.429Z,30.10
2018-08-07T12:10:28.677Z,30.09
2018-08-07T12:12:57.873Z,30.11
2018-08-07T12:15:27.386Z,30.15
2018-08-07T12:17:56.748Z,30.21
2018-08-07T12:20:25.917Z,30.08
2018-08-07T12:22:55.247Z,29.91
2018-08-07T12:25:24.533Z,29.73
2018-08-07T12:27:53.878Z,29.72
2018-08-07T12:30:27.365Z,29.71
2018-08-07T12:32:56.917Z,29.67
2018-08-07T12:35:27.384Z,29.62
2018-08-07T12:37:56.827Z,29.55
2018-08-07T12:40:28.040Z,29.70
2018-08-07T12:42:59.695Z,29.77
2018-08-07T12:45:29.009Z,29.81
2018-08-07T12:47:58.345Z,29.86
2018-08-07T12:50:27.732Z,29.98
2018-08-07T12:52:57.051Z,30.07
2018-08-07T12:55:26.309Z,30.07
2018-08-07T12:57:55.620Z,30.18
2018-08-07T13:00:26.345Z,30.35
2018-08-07T13:02:56.144Z,30.39
2018-08-07T13:05:25.398Z,30.58
2018-08-07T13:07:54.806Z,30.58
2018-08-07T13:10:25.096Z,30.48
2018-08-07T13:12:55.188Z,30.53
2018-08-07T13:15:24.488Z,30.51
2018-08-07T13:17:53.777Z,30.52
2018-08-07T13:20:23.063Z,30.63
2018-08-07T13:22:52.313Z,30.65
2018-08-07T13:25:22.929Z,30.69
2018-08-07T13:27:52.228Z,30.66
2018-08-07T13:30:27.088Z,30.76
2018-08-07T13:32:57.300Z,30.89
2018-08-07T13:35:26.558Z,31.00
2018-08-07T13:37:56.110Z,31.07
2018-08-07T13:40:25.773Z,31.28
2018-08-07T13:42:54.961Z,31.50
2018-08-07T13:45:25.435Z,31.67
2018-08-07T13:47:54.693Z,31.46
2018-08-07T13:50:24.984Z,31.19
2018-08-07T13:52:54.459Z,30.88
2018-08-07T13:55:24.864Z,30.59
2018-08-07T13:57:54.179Z,30.48
2018-08-07T14:00:27.369Z,30.36
2018-08-07T14:02:57.461Z,30.12
2018-08-07T14:05:27.453Z,30.00
2018-08-07T14:07:57.769Z,29.90
2018-08-07T14:10:28.672Z,29.89
2018-08-07T14:12:57.949Z,29.95
2018-08-07T14:15:28.656Z,30.22
2018-08-07T14:17:57.888Z,30.27
2018-08-07T14:20:27.164Z,30.36
2018-08-07T14:22:56.449Z,30.68
2018-08-07T14:25:27.524Z,30.83
2018-08-07T14:27:56.820Z,31.03
2018-08-07T14:30:28.343Z,31.03
2018-08-07T14:32:58.242Z,31.11
2018-08-07T14:35:27.532Z,31.40
2018-08-07T14:37:56.808Z,31.48
2018-08-07T14:40:27.349Z,31.29
2018-08-07T14:42:57.261Z,31.21
2018-08-07T14:45:27.887Z,31.01
2018-08-07T14:47:58.089Z,30.98
2018-08-07T14:50:28.936Z,30.76
2018-08-07T14:52:58.197Z,30.70
2018-08-07T14:55:27.469Z,30.56
2018-08-07T14:57:56.663Z,30.55
2018-08-07T15:00:28.304Z,30.52
2018-08-07T15:02:57.456Z,30.56
2018-08-07T15:05:26.649Z,30.39
2018-08-07T15:07:55.941Z,30.34
2018-08-07T15:10:26.417Z,30.52
2018-08-07T15:12:55.602Z,30.55
2018-08-07T15:15:28.783Z,30.41
2018-08-07T15:17:58.008Z,30.34
2018-08-07T15:20:28.818Z,30.52
2018-08-07T15:22:58.453Z,30.66
2018-08-07T15:25:27.697Z,30.60
2018-08-07T15:27:56.939Z,30.70
2018-08-07T15:30:27.288Z,30.79
2018-08-07T15:32:56.898Z,30.80
2018-08-07T15:35:27.507Z,30.80
2018-08-07T15:37:56.881Z,30.71
2018-08-07T15:40:26.102Z,30.81
2018-08-07T15:42:55.364Z,30.81
2018-08-07T15:45:25.565Z,30.79
2018-08-07T15:47:54.885Z,30.78
2018-08-07T15:50:24.253Z,30.65
2018-08-07T15:52:54.684Z,30.69
2018-08-07T15:55:25.378Z,30.67
2018-08-07T15:57:54.613Z,30.70
2018-08-07T16:00:28.217Z,30.65
2018-08-07T16:03:00.879Z,30.55
2018-08-07T16:05:30.327Z,30.41
2018-08-07T16:07:59.654Z,30.39
2018-08-07T16:10:28.900Z,30.40
2018-08-07T16:12:58.113Z,30.40
2018-08-07T16:15:27.365Z,30.39
2018-08-07T16:17:56.576Z,30.23
2018-08-07T16:20:25.818Z,30.15
2018-08-07T16:22:55.025Z,30.06
2018-08-07T16:25:24.216Z,30.09
2018-08-07T16:27:53.520Z,30.01
2018-08-07T16:30:25.243Z,29.88
2018-08-07T16:32:54.462Z,29.69
2018-08-07T16:35:23.682Z,29.44
2018-08-07T16:37:52.979Z,29.31
2018-08-07T16:40:23.550Z,29.21
2018-08-07T16:42:53.898Z,29.09
2018-08-07T16:45:23.865Z,28.97
2018-08-07T16:47:53.080Z,28.84
2018-08-07T16:50:24.591Z,28.72
2018-08-07T16:52:54.775Z,28.56
2018-08-07T16:55:25.497Z,28.43
2018-08-07T16:57:54.836Z,28.26
2018-08-07T17:00:24.078Z,28.16
2018-08-07T17:02:53.355Z,28.03
2018-08-07T17:05:22.623Z,27.92
2018-08-07T17:07:51.890Z,27.79
2018-08-07T17:10:26.327Z,27.68
2018-08-07T17:12:55.665Z,27.59
2018-08-07T17:15:24.898Z,27.54
2018-08-07T17:17:54.333Z,27.42
2018-08-07T17:20:24.080Z,27.32
2018-08-07T17:22:53.850Z,27.27
2018-08-07T17:25:23.882Z,27.21
2018-08-07T17:27:53.212Z,27.14
2018-08-07T17:30:24.509Z,27.09
2018-08-07T17:32:53.765Z,26.99
2018-08-07T17:35:24.282Z,26.93
2018-08-07T17:37:55.773Z,26.84
2018-08-07T17:40:26.595Z,26.82
2018-08-07T17:42:55.834Z,26.82
2018-08-07T17:45:25.053Z,26.83
2018-08-07T17:47:54.352Z,26.76
2018-08-07T17:50:25.630Z,26.68
2018-08-07T17:52:57.702Z,26.63
2018-08-07T17:55:26.981Z,26.64
2018-08-07T17:57:57.708Z,26.64
2018-08-07T18:00:27.453Z,26.58
2018-08-07T18:02:56.744Z,26.52
2018-08-07T18:05:26.031Z,26.43
2018-08-07T18:07:56.409Z,26.38
2018-08-07T18:10:25.910Z,26.31
2018-08-07T18:12:55.222Z,26.27
2018-08-07T18:15:24.578Z,26.21
2018-08-07T18:17:53.849Z,26.13
2018-08-07T18:20:24.448Z,25.91
2018-08-07T18:22:53.713Z,25.86
2018-08-07T18:25:22.924Z,25.79
2018-08-07T18:27:52.143Z,25.67
2018-08-07T18:30:22.913Z,25.53
2018-08-07T18:32:52.222Z,25.52
2018-08-07T18:35:23.943Z,25.56
2018-08-07T18:37:53.272Z,25.58
2018-08-07T18:40:22.525Z,25.56
2018-08-07T18:42:51.762Z,25.51
2018-08-07T18:45:20.995Z,25.51
2018-08-07T18:47:50.160Z,25.48
2018-08-07T18:50:21.434Z,25.46
2018-08-07T18:52:50.768Z,25.46
2018-08-07T18:55:20.004Z,25.47
2018-08-07T18:57:50.226Z,25.42
2018-08-07T19:00:21.160Z,25.39
2018-08-07T19:02:50.448Z,25.31
2018-08-07T19:05:21.000Z,25.27
2018-08-07T19:07:50.207Z,25.21
2018-08-07T19:10:19.417Z,25.16
2018-08-07T19:12:49.214Z,25.16
2018-08-07T19:15:19.405Z,25.13
2018-08-07T19:17:49.236Z,25.11
2018-08-07T19:20:21.108Z,25.03
2018-08-07T19:22:50.372Z,24.96
2018-08-07T19:25:20.178Z,24.90
2018-08-07T19:27:49.744Z,24.91
2018-08-07T19:30:20.958Z,24.82
2018-08-07T19:32:50.188Z,24.81
2018-08-07T19:35:19.325Z,24.87
2018-08-07T19:37:48.518Z,24.85
2018-08-07T19:40:18.762Z,24.81
2018-08-07T19:42:48.862Z,24.87
2018-08-07T19:45:18.585Z,24.86
2018-08-07T19:47:47.965Z,24.77
2018-08-07T19:50:18.845Z,24.81
2018-08-07T19:52:48.088Z,24.64
2018-08-07T19:55:19.099Z,24.50
2018-08-07T19:57:48.356Z,24.44
2018-08-07T20:00:21.257Z,24.35
2018-08-07T20:02:51.009Z,24.33
2018-08-07T20:05:20.506Z,24.24
2018-08-07T20:07:51.565Z,24.13
2018-08-07T20:10:21.343Z,24.08
2018-08-07T20:12:50.668Z,23.99
2018-08-07T20:15:21.992Z,24.04
2018-08-07T20:17:51.781Z,24.10
2018-08-07T20:20:21.504Z,24.05
2018-08-07T20:22:50.814Z,23.94
2018-08-07T20:25:20.105Z,23.88
2018-08-07T20:27:49.334Z,23.83
2018-08-07T20:30:20.154Z,23.81
2018-08-07T20:32:50.673Z,23.79
2018-08-07T20:35:19.907Z,23.75
2018-08-07T20:37:49.144Z,23.68
2018-08-07T20:40:20.217Z,23.62
2018-08-07T20:42:49.632Z,23.56
2018-08-07T20:45:19.551Z,23.51
2018-08-07T20:47:48.793Z,23.44
2018-08-07T20:50:19.649Z,23.36
2018-08-07T20:52:48.998Z,23.34
2018-08-07T20:55:18.312Z,23.30
2018-08-07T20:57:47.600Z,23.25
2018-08-07T21:00:19.553Z,23.20
2018-08-07T21:02:49.052Z,23.16
2018-08-07T21:05:18.338Z,23.13
2018-08-07T21:07:47.662Z,23.04
2018-08-07T21:10:18.477Z,22.99
2018-08-07T21:12:47.787Z,22.90
2018-08-07T21:15:16.984Z,22.83
2018-08-07T21:17:46.244Z,22.85
2018-08-07T21:20:17.548Z,22.82
2018-08-07T21:22:47.016Z,22.82
2018-08-07T21:25:19.768Z,22.79
2018-08-07T21:27:51.884Z,22.76
2018-08-07T21:30:22.698Z,22.71
2018-08-07T21:32:51.966Z,22.66
2018-08-07T21:35:21.216Z,22.51
2018-08-07T21:37:50.442Z,22.38
2018-08-07T21:40:20.987Z,22.30
2018-08-07T21:42:51.237Z,22.21
2018-08-07T21:45:20.551Z,22.08
2018-08-07T21:47:49.913Z,21.99
2018-08-07T21:50:21.631Z,21.95
2018-08-07T21:52:50.844Z,21.95
2018-08-07T21:55:20.766Z,21.94
2018-08-07T21:57:50.101Z,21.93
2018-08-07T22:00:22.604Z,21.93
2018-08-07T22:02:51.978Z,21.91
2018-08-07T22:05:21.311Z,21.90
2018-08-07T22:07:50.529Z,21.92
2018-08-07T22:10:21.169Z,21.93
2018-08-07T22:12:50.410Z,21.93
2018-08-07T22:15:20.376Z,21.88
2018-08-07T22:17:49.600Z,21.80
2018-08-07T22:20:18.945Z,21.73
2018-08-07T22:22:48.126Z,21.71
2018-08-07T22:25:17.312Z,21.65
2018-08-07T22:27:46.514Z,21.65
2018-08-07T22:30:19.745Z,21.58
2018-08-07T22:32:49.470Z,21.56
2018-08-07T22:35:18.719Z,21.59
2018-08-07T22:37:48.000Z,21.60
2018-08-07T22:40:17.437Z,21.58
2018-08-07T22:42:50.634Z,21.56
2018-08-07T22:45:19.904Z,21.56
2018-08-07T22:47:49.101Z,21.54
2018-08-07T22:50:19.185Z,21.50
2018-08-07T22:52:48.397Z,21.42
2018-08-07T22:55:19.131Z,21.33
2018-08-07T22:57:48.330Z,21.24
2018-08-07T23:00:19.436Z,21.17
2018-08-07T23:02:48.601Z,21.02
2018-08-07T23:05:18.680Z,20.97
2018-08-07T23:07:47.998Z,20.91
2018-08-07T23:10:19.717Z,20.88
2018-08-07T23:12:48.940Z,20.76
2018-08-07T23:15:19.821Z,20.71
2018-08-07T23:17:49.104Z,20.69
2018-08-07T23:20:19.891Z,20.69
2018-08-07T23:22:49.109Z,20.67
2018-08-07T23:25:18.317Z,20.62
2018-08-07T23:27:47.562Z,20.56
2018-08-07T23:30:18.315Z,20.49
2018-08-07T23:32:47.644Z,20.43
2018-08-07T23:35:17.454Z,20.37
2018-08-07T23:37:46.678Z,20.26
2018-08-07T23:40:16.341Z,20.23
2018-08-07T23:42:45.997Z,20.21
2018-08-07T23:45:15.859Z,20.05
2018-08-07T23:47:45.200Z,19.95
2018-08-07T23:50:15.017Z,19.94
2018-08-07T23:52:44.231Z,19.92
2018-08-07T23:55:13.435Z,19.93
2018-08-07T23:57:42.658Z,19.92
